Time;durP1;ratioP1;P1;durP2;ratioP2;P2;SDS_P1;SDS_P2;PMS_P1;PMS_P2;Temp;Humidity;BMP_temperature;BMP_pressure;BME280_temperature;BME280_humidity;BME280_pressure;Samples;Min_cycle;Max_cycle;Signal;HPM_P1;HPM_P2
2022/01/18 00:01:30;;;;;;;2.65;1.92;;;23.20;53.20;;;;;;4974904;28;20213;-70
2022/01/18 00:03:57;;;;;;;1.98;1.80;;;23.10;53.00;;;;;;4974685;28;20244;-71
2022/01/18 00:06:24;;;;;;;2.13;2.03;;;23.20;53.20;;;;;;4958502;28;20244;-71
2022/01/18 00:08:50;;;;;;;2.38;2.08;;;23.10;53.00;;;;;;4974916;28;20181;-70
2022/01/18 00:11:21;;;;;;;1.70;1.60;;;23.10;53.00;;;;;;4974389;28;20213;-70
2022/01/18 00:13:56;;;;;;;1.60;1.50;;;23.10;53.00;;;;;;4958433;28;20189;-71
2022/01/18 00:16:29;;;;;;;1.55;1.45;;;23.10;53.00;;;;;;4958141;28;20599;-71
2022/01/18 00:19:06;;;;;;;2.00;1.48;;;23.10;53.00;;;;;;4958421;28;20240;-71
2022/01/18 00:21:48;;;;;;;1.92;1.40;;;23.10;53.10;;;;;;4975482;28;20232;-70
2022/01/18 00:24:13;;;;;;;1.73;1.63;;;23.10;53.10;;;;;;4974351;28;20196;-69
2022/01/18 00:26:39;;;;;;;1.70;1.60;;;23.20;53.10;;;;;;4958249;28;20174;-71
2022/01/18 00:29:09;;;;;;;1.80;1.70;;;23.10;53.00;;;;;;4957924;28;20211;-70
2022/01/18 00:34:10;;;;;;;2.55;1.80;;;23.10;53.60;;;;;;4975063;28;20170;-69
2022/01/18 00:36:40;;;;;;;2.10;1.90;;;23.10;53.10;;;;;;4973845;28;20178;-70
2022/01/18 00:39:10;;;;;;;2.10;1.90;;;23.10;53.00;;;;;;4973995;28;20653;-70
2022/01/18 00:41:38;;;;;;;2.05;1.85;;;23.10;53.00;;;;;;4973985;28;20213;-70
2022/01/18 00:44:06;;;;;;;2.00;1.90;;;23.10;52.90;;;;;;4957832;28;20189;-70
2022/01/18 00:46:32;;;;;;;1.65;1.55;;;23.10;53.00;;;;;;4957477;28;20232;-71
2022/01/18 00:49:01;;;;;;;2.00;1.85;;;23.10;53.00;;;;;;4956899;28;20236;-71
2022/01/18 00:51:37;;;;;;;1.75;1.65;;;23.10;53.00;;;;;;4957697;28;20756;-70
2022/01/18 00:54:05;;;;;;;1.70;1.52;;;23.10;53.00;;;;;;4989801;28;20569;-71
2022/01/18 00:56:32;;;;;;;1.58;1.27;;;23.10;53.00;;;;;;4973352;28;20244;-70
2022/01/18 00:59:00;;;;;;;1.33;1.23;;;23.10;52.90;;;;;;4957462;28;20193;-71
2022/01/18 01:01:31;;;;;;;1.70;1.30;;;23.10;52.90;;;;;;4974958;28;20209;-70
2022/01/18 01:04:01;;;;;;;1.55;1.45;;;23.10;52.90;;;;;;4957730;28;20193;-71
2022/01/18 01:06:29;;;;;;;2.92;1.70;;;23.10;53.00;;;;;;4957362;28;20189;-71
2022/01/18 01:08:55;;;;;;;1.80;1.70;;;23.10;53.00;;;;;;4974990;28;20178;-71
2022/01/18 01:11:22;;;;;;;2.28;2.05;;;23.10;53.30;;;;;;4973621;28;20711;-70
2022/01/18 01:13:51;;;;;;;2.00;1.90;;;23.10;53.00;;;;;;4957265;28;20213;-70
2022/01/18 01:35:05;;;;;;;2.03;1.85;;;23.10;53.00;;;;;;4973017;28;20186;-67
2022/01/18 01:45:34;;;;;;;1.33;1.23;;;23.10;53.00;;;;;;4952857;29;20194;-67
2022/01/18 01:48:00;;;;;;;1.50;1.40;;;23.10;53.00;;;;;;4953055;29;20190;-67
2022/01/18 01:50:40;;;;;;;1.30;1.20;;;23.10;52.90;;;;;;4936950;29;20224;-67
2022/01/18 01:53:06;;;;;;;1.60;1.50;;;23.10;52.90;;;;;;4953011;29;20210;-67
2022/01/18 01:55:32;;;;;;;1.60;1.50;;;23.10;53.00;;;;;;4952652;29;20190;-67
2022/01/18 01:57:58;;;;;;;2.35;2.22;;;23.10;53.00;;;;;;4968952;28;20241;-67
2022/01/18 02:00:24;;;;;;;1.67;1.58;;;23.10;53.00;;;;;;4952389;28;20190;-66
2022/01/18 02:02:50;;;;;;;1.80;1.70;;;23.10;53.60;;;;;;4984898;28;20220;-67
2022/01/18 02:05:16;;;;;;;2.40;2.20;;;23.10;53.60;;;;;;4952543;29;20201;-67
2022/01/18 02:07:42;;;;;;;2.40;2.20;;;23.10;52.90;;;;;;4968897;28;20200;-67
2022/01/18 02:10:10;;;;;;;2.10;1.90;;;23.10;52.90;;;;;;4952373;28;20210;-67
2022/01/18 02:12:37;;;;;;;2.13;1.90;;;23.10;52.90;;;;;;4968743;28;20273;-67
2022/01/18 02:15:12;;;;;;;2.03;1.85;;;23.10;52.90;;;;;;4984572;28;20187;-67
2022/01/18 02:23:20;;;;;;;1.48;1.38;;;23.10;52.90;;;;;;4968358;28;20264;-67
2022/01/18 02:25:45;;;;;;;1.50;1.40;;;23.10;53.00;;;;;;4968257;28;20194;-67
2022/01/18 02:28:13;;;;;;;1.48;1.38;;;23.10;53.00;;;;;;4985049;28;20194;-67
2022/01/18 02:30:39;;;;;;;1.50;1.40;;;23.10;53.00;;;;;;4986973;28;20269;-67
2022/01/18 02:33:05;;;;;;;2.05;1.85;;;23.10;53.00;;;;;;4968529;28;20242;-68
2022/01/18 02:35:33;;;;;;;2.53;2.08;;;23.10;52.90;;;;;;4968409;28;20183;-67
2022/01/18 02:37:59;;;;;;;2.13;2.00;;;23.10;53.00;;;;;;4968422;28;20225;-67
2022/01/18 02:40:25;;;;;;;2.72;2.03;;;23.10;52.90;;;;;;4968491;28;20221;-67
2022/01/18 02:42:58;;;;;;;1.80;1.70;;;23.10;52.90;;;;;;4968477;28;20237;-67
2022/01/18 02:45:24;;;;;;;2.03;1.92;;;23.10;52.90;;;;;;4952107;29;20204;-67
2022/01/18 02:47:51;;;;;;;1.83;1.73;;;23.10;53.00;;;;;;4968515;28;20190;-67
2022/01/18 02:50:18;;;;;;;1.83;1.73;;;23.10;52.90;;;;;;4968416;28;20210;-67
2022/01/18 02:52:44;;;;;;;1.80;1.70;;;23.10;53.00;;;;;;4968346;28;20204;-67
2022/01/18 02:55:10;;;;;;;1.30;1.20;;;23.10;52.90;;;;;;4968299;28;20661;-67
2022/01/18 02:58:01;;;;;;;1.50;1.40;;;23.10;53.00;;;;;;4968538;28;20198;-67
2022/01/18 03:00:45;;;;;;;1.50;1.40;;;23.10;53.00;;;;;;4968285;28;20646;-67
2022/01/18 03:03:16;;;;;;;1.50;1.40;;;23.10;52.90;;;;;;4968204;28;20297;-66
2022/01/18 03:05:44;;;;;;;2.20;1.83;;;23.10;53.00;;;;;;4967949;28;20190;-67
2022/01/18 03:08:12;;;;;;;1.90;1.80;;;23.10;53.00;;;;;;4968124;28;20197;-67
2022/01/18 03:10:40;;;;;;;1.80;1.70;;;23.10;52.90;;;;;;4968243;28;20229;-67
2022/01/18 03:13:07;;;;;;;2.00;1.90;;;23.10;52.90;;;;;;4955023;29;20218;-67
2022/01/18 03:15:35;;;;;;;1.85;1.75;;;23.10;52.90;;;;;;4971543;28;20186;-67
2022/01/18 03:18:04;;;;;;;1.98;1.85;;;23.10;52.90;;;;;;4956790;28;20683;-67
2022/01/18 03:20:30;;;;;;;1.55;1.45;;;23.10;52.90;;;;;;4971680;28;20190;-67
2022/01/18 03:22:56;;;;;;;2.00;1.90;;;23.10;52.80;;;;;;4971697;28;20214;-67
2022/01/18 03:25:39;;;;;;;1.40;1.30;;;23.10;52.80;;;;;;4955439;28;20195;-67
2022/01/18 03:28:08;;;;;;;1.48;1.38;;;23.10;52.90;;;;;;4971015;28;20221;-67
2022/01/18 03:30:37;;;;;;;2.67;1.38;;;23.10;52.80;;;;;;4942190;29;20219;-67
2022/01/18 03:33:08;;;;;;;1.30;1.20;;;23.10;52.80;;;;;;4920334;29;20226;-67
2022/01/18 03:35:35;;;;;;;5.35;1.42;;;23.10;52.90;;;;;;4942180;28;20198;-67
2022/01/18 03:38:01;;;;;;;1.40;1.30;;;23.20;52.90;;;;;;4955274;29;20186;-67
2022/01/18 03:40:27;;;;;;;1.27;1.17;;;23.10;52.80;;;;;;4939290;29;20241;-67
2022/01/18 03:42:55;;;;;;;1.50;1.40;;;23.10;52.80;;;;;;4955229;29;20257;-67
2022/01/18 03:45:40;;;;;;;1.50;1.40;;;23.10;52.80;;;;;;4954862;29;20178;-67
2022/01/18 03:48:10;;;;;;;1.83;1.73;;;23.10;52.90;;;;;;4939161;29;20296;-67
2022/01/18 03:50:36;;;;;;;2.05;1.83;;;23.10;52.90;;;;;;4956231;28;20222;-67
2022/01/18 03:53:02;;;;;;;1.60;1.50;;;23.10;52.90;;;;;;4939088;29;20212;-67
2022/01/18 03:55:28;;;;;;;1.88;1.77;;;23.10;52.80;;;;;;4954779;29;20724;-67
2022/01/18 03:57:54;;;;;;;1.90;1.80;;;23.10;52.80;;;;;;4954853;29;20371;-67
2022/01/18 04:00:27;;;;;;;1.80;1.70;;;23.10;52.80;;;;;;4955239;29;20230;-67
2022/01/18 04:02:54;;;;;;;1.30;1.20;;;23.10;52.80;;;;;;4939141;29;20210;-67
2022/01/18 04:05:21;;;;;;;0.90;0.90;;;23.10;52.80;;;;;;4938539;29;20307;-67
2022/01/18 04:07:47;;;;;;;1.40;1.30;;;23.10;52.80;;;;;;4954726;29;20789;-67
2022/01/18 04:10:13;;;;;;;1.27;1.17;;;23.10;52.80;;;;;;4938184;29;20207;-67
2022/01/18 04:12:40;;;;;;;1.40;1.30;;;23.10;52.90;;;;;;4938530;29;20260;-67
2022/01/18 04:15:09;;;;;;;1.33;1.20;;;23.10;52.90;;;;;;4955685;28;20183;-67
2022/01/18 04:26:02;;;;;;;2.00;1.90;;;23.10;52.80;;;;;;4955575;29;20267;-67
2022/01/18 04:28:39;;;;;;;1.60;1.50;;;23.10;52.80;;;;;;4969858;28;20757;-67
2022/01/18 04:31:07;;;;;;;1.35;1.27;;;23.10;52.80;;;;;;4986805;28;20418;-66
2022/01/18 04:33:35;;;;;;;1.70;1.60;;;23.10;52.80;;;;;;4957733;28;20214;-67
2022/01/18 04:36:02;;;;;;;1.13;1.13;;;23.10;52.80;;;;;;4938131;29;20183;-67
2022/01/18 04:38:27;;;;;;;1.10;1.10;;;23.10;52.80;;;;;;4938267;29;20650;-67
2022/01/18 04:40:59;;;;;;;1.23;1.15;;;23.10;52.90;;;;;;4938014;29;20190;-67
2022/01/18 04:43:41;;;;;;;1.52;1.42;;;23.10;52.90;;;;;;4938023;29;20212;-67
2022/01/18 04:48:51;;;;;;;3.83;2.25;;;23.10;52.80;;;;;;4955163;29;20273;-67
2022/01/18 04:51:17;;;;;;;1.83;1.73;;;23.10;52.80;;;;;;4953777;28;20206;-67
2022/01/18 04:53:53;;;;;;;2.05;1.95;;;23.10;52.80;;;;;;4953733;28;20273;-67
2022/01/18 04:59:02;;;;;;;1.23;1.20;;;23.10;52.80;;;;;;4953783;29;20191;-67
2022/01/18 05:01:27;;;;;;;1.42;1.33;;;23.10;52.80;;;;;;4937803;29;20194;-67
2022/01/18 05:03:53;;;;;;;4.22;1.33;;;23.10;52.80;;;;;;4953526;28;20216;-67
2022/01/18 05:06:20;;;;;;;1.33;1.20;;;23.10;52.80;;;;;;4937406;29;20190;-67
2022/01/18 05:08:46;;;;;;;1.13;1.13;;;23.10;52.80;;;;;;4937923;29;20214;-67
2022/01/18 05:11:16;;;;;;;2.65;1.50;;;23.10;52.80;;;;;;4953580;28;20210;-67
2022/01/18 05:22:57;;;;;;;3.28;2.10;;;23.10;52.80;;;;;;4953398;28;20194;-67
2022/01/18 05:24:29;;;;;;;2.17;1.95;;;23.10;52.80;;;;;;4952973;28;20194;-67
2022/01/18 05:26:58;;;;;;;2.00;1.90;;;23.00;52.60;;;;;;4954461;28;20197;-66
2022/01/18 05:29:24;;;;;;;2.75;1.40;;;23.00;52.60;;;;;;4954606;28;20666;-67
2022/01/18 05:31:50;;;;;;;1.50;1.40;;;23.00;52.60;;;;;;4953136;28;20194;-66
2022/01/18 05:34:16;;;;;;;1.30;1.20;;;23.00;52.60;;;;;;4952845;28;20245;-67
2022/01/18 05:36:43;;;;;;;1.42;1.33;;;23.00;52.60;;;;;;4937301;29;20186;-66
2022/01/18 05:39:10;;;;;;;2.17;1.50;;;23.00;52.50;;;;;;4940605;29;20191;-66
2022/01/18 05:41:38;;;;;;;1.40;1.30;;;23.10;52.60;;;;;;4953715;29;20194;-66
2022/01/18 05:44:05;;;;;;;1.50;1.40;;;23.10;52.60;;;;;;4953533;28;20244;-66
2022/01/18 05:46:31;;;;;;;1.85;1.40;;;23.10;52.60;;;;;;4953608;29;20182;-66
2022/01/18 05:49:00;;;;;;;1.63;1.48;;;23.10;52.60;;;;;;4953424;29;20561;-66
2022/01/18 05:51:31;;;;;;;1.83;1.58;;;23.00;52.50;;;;;;4953540;29;20210;-66
2022/01/18 05:53:57;;;;;;;3.30;2.15;;;23.10;52.80;;;;;;4953407;29;20278;-66
2022/01/18 05:56:24;;;;;;;4.88;2.55;;;23.00;52.70;;;;;;4953331;29;20269;-67
2022/01/18 05:58:50;;;;;;;2.85;2.55;;;23.10;52.80;;;;;;4969656;28;20302;-67
2022/01/18 06:01:25;;;;;;;2.75;2.20;;;23.00;52.60;;;;;;4953183;28;20190;-67
2022/01/18 06:09:12;;;;;;;2.95;1.55;;;23.10;52.70;;;;;;4969339;28;20186;-66
2022/01/18 06:11:40;;;;;;;3.15;1.60;;;23.00;52.60;;;;;;4944825;28;20226;-67
2022/01/18 06:14:06;;;;;;;2.00;1.75;;;23.00;52.60;;;;;;4950751;29;20186;-67
2022/01/18 06:16:31;;;;;;;2.38;1.90;;;23.00;52.70;;;;;;4968572;28;20218;-67
2022/01/18 06:18:57;;;;;;;2.72;1.50;;;23.00;52.60;;;;;;4968802;28;20192;-67
2022/01/18 06:21:23;;;;;;;2.47;1.30;;;23.00;52.60;;;;;;4968748;28;20190;-67
2022/01/18 06:23:49;;;;;;;3.70;1.50;;;23.00;52.70;;;;;;4952621;29;20713;-67
2022/01/18 06:26:16;;;;;;;1.95;1.50;;;23.00;52.60;;;;;;4968674;28;20646;-67
2022/01/18 06:28:43;;;;;;;1.60;1.50;;;23.00;52.60;;;;;;4968792;28;20662;-67
2022/01/18 06:31:09;;;;;;;2.20;1.77;;;23.00;52.60;;;;;;4952518;29;20222;-67
2022/01/18 06:33:35;;;;;;;3.75;1.90;;;23.00;52.60;;;;;;4952190;28;20272;-67
2022/01/18 06:36:02;;;;;;;2.60;1.70;;;23.00;52.70;;;;;;4968367;28;20186;-67
2022/01/18 06:38:28;;;;;;;3.47;2.08;;;23.00;52.60;;;;;;4952638;29;20186;-67
2022/01/18 06:40:54;;;;;;;2.83;1.63;;;23.00;52.60;;;;;;4968924;28;20198;-67
2022/01/18 06:43:21;;;;;;;1.70;1.58;;;23.00;52.50;;;;;;4954399;28;20256;-67
2022/01/18 06:45:47;;;;;;;3.53;1.55;;;23.00;52.50;;;;;;4953180;28;20229;-66
2022/01/18 06:48:13;;;;;;;3.53;1.40;;;23.00;52.50;;;;;;4955952;29;20286;-67
2022/01/18 06:50:39;;;;;;;2.75;1.63;;;23.00;52.50;;;;;;4956414;29;20296;-67
2022/01/18 06:53:05;;;;;;;3.15;1.67;;;22.90;52.40;;;;;;4956275;28;20289;-67
2022/01/18 06:55:31;;;;;;;1.55;1.40;;;23.00;52.50;;;;;;4955901;28;20179;-67
2022/01/18 06:57:57;;;;;;;1.90;1.63;;;22.90;52.40;;;;;;4957175;29;20194;-67
2022/01/18 07:00:23;;;;;;;1.67;1.13;;;23.00;52.50;;;;;;4939960;29;20194;-67
2022/01/18 07:02:49;;;;;;;3.55;1.42;;;23.00;52.50;;;;;;4939933;29;20210;-67
2022/01/18 07:05:15;;;;;;;2.28;1.20;;;23.00;52.40;;;;;;4955884;28;20194;-67
2022/01/18 07:07:42;;;;;;;2.03;1.33;;;22.90;52.40;;;;;;4954468;28;20199;-68
2022/01/18 07:10:09;;;;;;;1.42;1.20;;;22.90;52.40;;;;;;4935691;29;20590;-67
2022/01/18 07:12:36;;;;;;;1.58;1.30;;;22.90;52.40;;;;;;4920835;29;20214;-67
2022/01/18 07:15:06;;;;;;;1.40;1.30;;;23.00;52.50;;;;;;4936185;29;20187;-67
2022/01/18 07:17:33;;;;;;;2.33;1.13;;;23.00;52.50;;;;;;4952491;29;20183;-67
2022/01/18 07:19:59;;;;;;;2.15;1.40;;;23.00;52.50;;;;;;4932539;29;20270;-67
2022/01/18 07:22:25;;;;;;;2.25;1.52;;;23.00;52.50;;;;;;4936509;29;20305;-67
2022/01/18 07:24:56;;;;;;;1.85;1.40;;;23.00;52.50;;;;;;4941574;29;20222;-67
2022/01/18 07:27:22;;;;;;;1.50;1.40;;;22.90;52.40;;;;;;4920525;29;20284;-67
2022/01/18 07:29:48;;;;;;;1.52;1.33;;;23.00;52.50;;;;;;4930886;29;20219;-67
2022/01/18 07:32:14;;;;;;;1.77;1.67;;;23.00;52.50;;;;;;4970319;23;20208;-70
2022/01/18 07:34:49;;;;;;;1.40;1.30;;;23.00;52.60;;;;;;4963074;28;20277;-71
2022/01/18 07:37:14;;;;;;;1.45;1.35;;;22.90;52.40;;;;;;4943173;28;20204;-70
2022/01/18 07:39:40;;;;;;;1.33;1.23;;;23.00;52.60;;;;;;4943622;28;20642;-70
2022/01/18 07:42:07;;;;;;;2.65;1.55;;;23.00;52.50;;;;;;4941279;28;20257;-70
2022/01/18 07:44:32;;;;;;;1.77;1.35;;;22.90;52.50;;;;;;4954545;29;20731;-70
2022/01/18 07:46:58;;;;;;;2.50;1.40;;;23.00;52.60;;;;;;4955553;29;20269;-70
2022/01/18 07:49:24;;;;;;;1.38;1.27;;;23.00;52.70;;;;;;4955476;29;20190;-70
2022/01/18 07:51:50;;;;;;;1.27;1.17;;;23.00;52.70;;;;;;4955743;29;20190;-70
2022/01/18 07:54:17;;;;;;;1.30;1.20;;;23.00;52.80;;;;;;4955154;28;20689;-70
2022/01/18 07:56:44;;;;;;;1.63;1.20;;;23.00;52.70;;;;;;4955537;29;20217;-70
2022/01/18 07:59:11;;;;;;;1.50;1.30;;;23.00;52.70;;;;;;4935973;29;20191;-70
2022/01/18 08:01:38;;;;;;;1.00;1.00;;;23.00;52.60;;;;;;4905014;29;20234;-70
2022/01/18 08:04:04;;;;;;;2.05;1.10;;;23.00;52.60;;;;;;4920241;29;20601;-70
2022/01/18 08:06:30;;;;;;;1.20;1.13;;;23.00;52.60;;;;;;4920051;29;20748;-70
2022/01/18 08:08:56;;;;;;;1.35;1.23;;;23.00;52.70;;;;;;4944374;29;20182;-70
2022/01/18 08:11:22;;;;;;;1.90;1.20;;;23.00;52.70;;;;;;4939188;29;20214;-70
2022/01/18 08:13:49;;;;;;;1.23;1.10;;;23.00;53.20;;;;;;4935748;29;20199;-70
2022/01/18 08:16:46;;;;;;;1.52;1.42;;;23.00;52.60;;;;;;4920077;29;20202;-70
2022/01/18 08:19:06;;;;;;;1.48;1.38;;;23.00;52.60;;;;;;4943793;29;20195;-70
2022/01/18 08:21:32;;;;;;;1.67;1.58;;;23.00;52.60;;;;;;4954609;29;20194;-70
2022/01/18 08:23:57;;;;;;;1.60;1.50;;;23.00;52.60;;;;;;4955238;28;20217;-70
2022/01/18 08:26:23;;;;;;;4.25;1.70;;;23.00;52.60;;;;;;4955058;29;20229;-70
2022/01/18 08:28:49;;;;;;;2.75;1.30;;;23.00;52.70;;;;;;4954621;29;20195;-70
2022/01/18 08:31:15;;;;;;;1.40;1.30;;;23.00;52.60;;;;;;4956038;29;20210;-70
2022/01/18 08:33:41;;;;;;;1.55;1.23;;;23.00;52.60;;;;;;4938962;29;20216;-70
2022/01/18 08:36:07;;;;;;;1.77;1.42;;;23.00;52.60;;;;;;4938453;29;20194;-70
2022/01/18 08:38:35;;;;;;;1.20;1.10;;;23.00;52.90;;;;;;4954623;29;20187;-70
2022/01/18 08:41:02;;;;;;;1.30;1.20;;;23.00;52.60;;;;;;4954135;28;20198;-69
2022/01/18 08:43:33;;;;;;;1.27;1.17;;;23.00;52.60;;;;;;4939686;28;20298;-69
2022/01/18 08:46:03;;;;;;;1.15;1.05;;;23.00;52.60;;;;;;4935553;29;20191;-70
2022/01/18 08:48:30;;;;;;;1.00;1.00;;;23.00;52.60;;;;;;4938920;29;20194;-70
2022/01/18 08:50:57;;;;;;;1.50;1.40;;;23.00;52.60;;;;;;4938585;29;20218;-70
2022/01/18 08:53:23;;;;;;;1.52;1.30;;;23.10;52.60;;;;;;4955969;28;20310;-70
2022/01/18 08:55:49;;;;;;;1.50;1.33;;;23.00;52.60;;;;;;4938558;29;20221;-70
2022/01/18 08:58:15;;;;;;;1.10;1.00;;;23.00;52.60;;;;;;4954930;29;20249;-70
2022/01/18 09:00:41;;;;;;;2.05;1.50;;;23.10;52.70;;;;;;4954364;29;20199;-70
2022/01/18 09:03:10;;;;;;;1.88;1.35;;;23.10;52.60;;;;;;4955412;28;20205;-70
2022/01/18 09:05:37;;;;;;;1.60;1.50;;;23.10;52.70;;;;;;4937448;29;20277;-70
2022/01/18 09:08:07;;;;;;;1.70;1.60;;;23.00;52.50;;;;;;4954034;29;20174;-70
2022/01/18 09:10:34;;;;;;;2.00;1.70;;;23.00;52.60;;;;;;4953323;28;20713;-70
2022/01/18 09:13:00;;;;;;;1.70;1.60;;;23.00;52.60;;;;;;4954064;28;20338;-70
2022/01/18 09:15:26;;;;;;;1.60;1.50;;;23.10;52.60;;;;;;4937910;29;20194;-70
2022/01/18 09:17:52;;;;;;;1.67;1.40;;;23.00;52.60;;;;;;4954335;29;20187;-70
2022/01/18 09:20:18;;;;;;;1.42;1.33;;;23.10;52.60;;;;;;4954848;29;20194;-70
2022/01/18 09:22:48;;;;;;;1.45;1.35;;;23.10;52.60;;;;;;4953772;28;20217;-70
2022/01/18 09:25:25;;;;;;;1.25;1.15;;;23.10;52.60;;;;;;4937726;29;20194;-70
2022/01/18 09:27:53;;;;;;;1.48;1.20;;;23.10;52.60;;;;;;4953737;29;20191;-69
2022/01/18 09:30:19;;;;;;;2.00;1.20;;;23.10;52.60;;;;;;4953787;29;20210;-70
2022/01/18 09:32:47;;;;;;;1.70;1.00;;;23.10;52.50;;;;;;4937801;29;20222;-70
2022/01/18 09:35:15;;;;;;;2.22;1.25;;;23.10;52.50;;;;;;4937814;29;20189;-70
2022/01/18 09:37:43;;;;;;;1.30;1.20;;;23.10;52.50;;;;;;4937764;29;20192;-69
2022/01/18 09:40:10;;;;;;;1.30;1.20;;;23.20;52.60;;;;;;4937706;29;20190;-70
2022/01/18 09:42:39;;;;;;;1.23;1.13;;;23.20;52.50;;;;;;4921741;29;20218;-70
2022/01/18 09:45:16;;;;;;;1.38;1.20;;;23.20;52.60;;;;;;4953370;29;20198;-70
2022/01/18 09:47:46;;;;;;;1.42;1.33;;;23.20;52.50;;;;;;4921791;29;20218;-70
2022/01/18 09:50:21;;;;;;;1.48;1.38;;;23.10;52.40;;;;;;4934226;29;20308;-70
2022/01/18 09:52:52;;;;;;;1.30;1.20;;;23.20;52.70;;;;;;4918470;29;20206;-70
2022/01/18 09:55:25;;;;;;;1.63;1.30;;;23.20;52.40;;;;;;4918377;29;20168;-70
2022/01/18 09:57:52;;;;;;;1.33;1.20;;;23.10;52.40;;;;;;4902624;29;20183;-70
2022/01/18 10:00:24;;;;;;;1.65;1.30;;;23.20;52.50;;;;;;4936072;29;20186;-70
2022/01/18 10:02:50;;;;;;;1.52;1.25;;;23.20;52.40;;;;;;4954551;28;20220;-70
2022/01/18 10:05:23;;;;;;;1.08;1.08;;;23.10;52.40;;;;;;4954381;29;20186;-70
2022/01/18 10:08:07;;;;;;;1.30;1.20;;;23.20;52.40;;;;;;4953538;29;20178;-70
2022/01/18 10:10:56;;;;;;;3.03;1.30;;;23.20;52.50;;;;;;4934020;29;20222;-70
2022/01/18 10:13:25;;;;;;;2.35;1.23;;;23.20;52.30;;;;;;4950176;28;20214;-70
2022/01/18 10:16:11;;;;;;;4.28;1.25;;;23.10;52.30;;;;;;4917962;29;20183;-70
2022/01/18 10:19:00;;;;;;;1.30;1.05;;;23.10;52.20;;;;;;4906742;29;20222;-70
2022/01/18 10:21:38;;;;;;;1.15;1.05;;;23.10;52.10;;;;;;4936883;29;20198;-70
2022/01/18 10:24:26;;;;;;;1.08;0.90;;;23.10;52.20;;;;;;4936965;29;20214;-69
2022/01/18 10:26:55;;;;;;;1.60;0.90;;;23.20;52.20;;;;;;4953279;29;20179;-70
2022/01/18 10:29:37;;;;;;;1.13;1.02;;;23.20;52.20;;;;;;4953103;29;20189;-70
2022/01/18 10:37:16;;;;;;;1.13;1.00;;;23.20;52.20;;;;;;4937026;29;20190;-70
2022/01/18 10:39:52;;;;;;;2.20;1.02;;;23.20;52.10;;;;;;4937058;29;20186;-70
2022/01/18 10:42:21;;;;;;;0.93;0.90;;;23.20;52.10;;;;;;4952869;28;20375;-70
2022/01/18 10:44:58;;;;;;;0.93;0.93;;;23.20;52.10;;;;;;4936747;29;20190;-70
2022/01/18 10:47:25;;;;;;;1.25;1.15;;;23.20;52.10;;;;;;4953002;29;20224;-70
2022/01/18 10:49:51;;;;;;;1.10;0.90;;;23.20;52.10;;;;;;4953735;29;20186;-70
2022/01/18 10:52:22;;;;;;;2.22;1.00;;;23.20;52.10;;;;;;4936163;29;20210;-69
2022/01/18 10:54:54;;;;;;;1.58;0.88;;;23.20;52.10;;;;;;4925695;29;20206;-69
2022/01/18 10:57:32;;;;;;;0.77;0.77;;;23.20;52.00;;;;;;4952796;29;20670;-69
2022/01/18 11:00:16;;;;;;;2.08;0.90;;;23.20;52.00;;;;;;4952626;28;20205;-70
2022/01/18 11:02:46;;;;;;;4.30;1.27;;;23.20;52.00;;;;;;4953877;28;20236;-70
2022/01/18 11:05:29;;;;;;;1.92;1.10;;;23.20;52.00;;;;;;4952890;28;20278;-70
2022/01/18 11:08:02;;;;;;;1.30;1.00;;;23.20;52.00;;;;;;4954023;29;20681;-70
2022/01/18 11:10:40;;;;;;;1.50;1.00;;;23.20;52.00;;;;;;4946905;28;20282;-70
2022/01/18 11:13:17;;;;;;;1.17;0.80;;;23.20;52.10;;;;;;4953435;28;20221;-70
2022/01/18 11:15:51;;;;;;;1.92;1.20;;;23.20;52.00;;;;;;4968440;28;20190;-69
2022/01/18 11:18:28;;;;;;;1.10;1.00;;;23.20;52.00;;;;;;4953552;28;20627;-70
2022/01/18 11:20:55;;;;;;;1.02;0.95;;;23.20;52.00;;;;;;4949405;29;20218;-69
2022/01/18 11:23:23;;;;;;;2.75;1.15;;;23.20;52.10;;;;;;4921005;29;20274;-70
2022/01/18 11:25:52;;;;;;;3.15;1.30;;;23.20;52.10;;;;;;4952385;29;20190;-70
2022/01/18 11:28:19;;;;;;;1.75;1.40;;;23.20;52.20;;;;;;4952160;29;20182;-72
2022/01/18 11:30:47;;;;;;;2.40;1.00;;;23.20;52.20;;;;;;4936517;29;20214;-70
2022/01/18 11:33:16;;;;;;;2.47;1.10;;;23.20;52.20;;;;;;4938193;29;20217;-70
2022/01/18 11:36:03;;;;;;;1.83;1.23;;;23.20;52.30;;;;;;4939815;29;20214;-70
2022/01/18 11:38:50;;;;;;;6.80;0.90;;;23.20;52.30;;;;;;4955674;29;20240;-69
2022/01/18 11:41:28;;;;;;;3.10;1.20;;;23.20;52.50;;;;;;4923890;29;20293;-70
2022/01/18 11:43:57;;;;;;;3.88;1.17;;;23.20;52.50;;;;;;4956777;28;20209;-70
2022/01/18 11:46:36;;;;;;;2.40;1.00;;;23.20;52.50;;;;;;4941091;28;20281;-70
2022/01/18 11:49:29;;;;;;;5.07;1.15;;;23.20;52.40;;;;;;4924796;29;20198;-70
2022/01/18 11:52:06;;;;;;;4.10;1.50;;;23.20;52.50;;;;;;4927316;28;20785;-70
2022/01/18 11:54:36;;;;;;;2.97;1.30;;;23.20;52.50;;;;;;4971773;28;20226;-70
2022/01/18 11:57:20;;;;;;;2.25;1.20;;;23.20;52.50;;;;;;4954963;29;20190;-70
2022/01/18 11:59:47;;;;;;;3.08;1.27;;;23.20;52.50;;;;;;4940322;29;20573;-69
2022/01/18 12:02:34;;;;;;;1.52;1.15;;;23.20;52.30;;;;;;4956660;28;20647;-69
2022/01/18 12:05:25;;;;;;;4.20;1.33;;;23.20;52.20;;;;;;4954591;29;20561;-69
2022/01/18 12:07:50;;;;;;;4.10;1.65;;;23.20;52.20;;;;;;4956150;28;20206;-69
2022/01/18 12:10:32;;;;;;;2.13;1.23;;;23.20;52.30;;;;;;4950616;28;20218;-69
2022/01/18 12:13:11;;;;;;;1.60;1.00;;;23.20;52.10;;;;;;4947054;29;20211;-69
2022/01/18 12:15:38;;;;;;;4.30;1.35;;;23.20;52.20;;;;;;4960548;28;20205;-69
2022/01/18 12:18:20;;;;;;;2.60;1.40;;;23.20;52.20;;;;;;4963046;28;20190;-69
2022/01/18 12:21:05;;;;;;;2.63;1.08;;;23.20;52.10;;;;;;4962893;28;20198;-69
2022/01/18 12:23:42;;;;;;;2.97;1.27;;;23.20;52.10;;;;;;4954915;28;20210;-69
2022/01/18 12:26:42;;;;;;;3.97;1.20;;;23.20;52.10;;;;;;4945184;29;20182;-69
2022/01/18 12:32:18;;;;;;;3.28;1.38;;;23.20;52.00;;;;;;4955769;28;20198;-68
2022/01/18 12:34:49;;;;;;;1.48;1.17;;;23.20;52.00;;;;;;4955979;29;20193;-69
2022/01/18 12:37:19;;;;;;;4.20;1.52;;;23.20;52.00;;;;;;4955066;29;20197;-69
2022/01/18 12:39:52;;;;;;;2.13;1.40;;;23.20;52.00;;;;;;4954556;29;20198;-69
2022/01/18 12:45:20;;;;;;;2.17;1.45;;;23.10;51.90;;;;;;4937664;29;20182;-69
2022/01/18 12:47:55;;;;;;;3.30;1.50;;;23.20;51.90;;;;;;4923012;29;20214;-69
2022/01/18 12:50:45;;;;;;;4.28;1.80;;;23.10;51.90;;;;;;4954282;29;20220;-69
2022/01/18 12:53:30;;;;;;;2.10;1.60;;;23.10;51.80;;;;;;4930279;29;20229;-69
2022/01/18 12:56:06;;;;;;;2.22;1.13;;;23.20;51.90;;;;;;4922433;29;20196;-69
2022/01/18 12:58:42;;;;;;;3.28;1.38;;;23.10;51.70;;;;;;4922576;29;20186;-69
2022/01/18 13:01:15;;;;;;;2.10;1.23;;;23.10;51.80;;;;;;4922800;29;20202;-68
2022/01/18 13:03:48;;;;;;;4.32;1.48;;;23.20;51.80;;;;;;4954356;28;20210;-69
2022/01/18 13:06:20;;;;;;;2.10;1.10;;;23.20;51.90;;;;;;4954169;29;20578;-69
2022/01/18 13:08:53;;;;;;;3.33;1.38;;;23.20;51.80;;;;;;4954190;29;20225;-69
2022/01/18 13:11:31;;;;;;;2.10;1.20;;;23.10;51.70;;;;;;4954500;29;20248;-67
2022/01/18 13:14:09;;;;;;;2.72;1.40;;;23.10;51.70;;;;;;4955318;28;20265;-69
2022/01/18 13:27:50;;;;;;;3.95;1.70;;;23.20;51.80;;;;;;4953777;29;20191;-70
2022/01/18 13:30:25;;;;;;;1.52;1.40;;;23.10;51.70;;;;;;4954397;29;20234;-69
2022/01/18 13:32:57;;;;;;;1.40;1.30;;;23.10;51.60;;;;;;4981922;23;20635;-66
2022/01/18 13:35:29;;;;;;;3.30;1.42;;;23.10;51.70;;;;;;4956536;28;20196;-67
2022/01/18 13:38:00;;;;;;;2.33;1.25;;;23.10;51.60;;;;;;4973028;28;20198;-67
2022/01/18 13:40:29;;;;;;;1.55;1.20;;;23.10;51.60;;;;;;4975826;28;20676;-67
2022/01/18 13:43:10;;;;;;;3.50;1.48;;;23.10;51.50;;;;;;4971640;28;20213;-66
2022/01/18 13:45:42;;;;;;;2.45;1.10;;;23.10;51.60;;;;;;4919902;29;20272;-67
2022/01/18 13:48:10;;;;;;;1.98;1.10;;;23.10;51.50;;;;;;4954905;28;20186;-67
2022/01/18 13:50:56;;;;;;;1.25;1.15;;;23.10;51.50;;;;;;4956362;28;20364;-66
2022/01/18 13:53:27;;;;;;;1.75;1.23;;;23.10;51.50;;;;;;4940283;28;20308;-66
2022/01/18 13:56:04;;;;;;;1.10;1.00;;;23.10;51.60;;;;;;4954683;28;20195;-67
2022/01/18 13:58:39;;;;;;;3.15;1.38;;;23.10;51.60;;;;;;4921771;29;20244;-67
2022/01/18 14:01:14;;;;;;;2.67;1.23;;;23.10;51.60;;;;;;4937410;29;20272;-67
2022/01/18 14:03:43;;;;;;;2.55;1.00;;;23.10;51.50;;;;;;4937043;29;20292;-68
2022/01/18 14:06:11;;;;;;;2.72;1.30;;;23.10;51.70;;;;;;4937362;29;20186;-67
2022/01/18 14:08:50;;;;;;;1.20;1.10;;;23.10;51.70;;;;;;4941687;28;20193;-67
2022/01/18 14:11:26;;;;;;;1.20;1.10;;;23.10;51.70;;;;;;4940641;28;20312;-68
2022/01/18 14:13:54;;;;;;;2.17;1.25;;;23.10;51.70;;;;;;4929545;28;20231;-67
2022/01/18 14:16:33;;;;;;;1.85;1.17;;;23.10;51.80;;;;;;4936913;29;20192;-67
2022/01/18 14:19:09;;;;;;;3.00;1.10;;;23.10;51.90;;;;;;4940648;29;20225;-67
2022/01/18 14:21:42;;;;;;;2.42;1.27;;;23.10;51.90;;;;;;4936966;29;20196;-66
2022/01/18 14:24:25;;;;;;;3.75;1.13;;;23.10;52.00;;;;;;4936985;29;20594;-67
2022/01/18 14:26:51;;;;;;;1.27;1.10;;;23.10;52.00;;;;;;4954008;29;20693;-67
2022/01/18 14:29:20;;;;;;;1.92;1.30;;;23.10;52.00;;;;;;4946739;28;20589;-67